sensor_id;sensor_type;location;lat;lon;timestamp;temperature;humidity
39371;DHT22;25099;51.946;4.838;2022-08-19T00:01:15;18.60;99.90
39371;DHT22;25099;51.946;4.838;2022-08-19T00:03:41;18.60;99.90
39371;DHT22;25099;51.946;4.838;2022-08-19T00:06:06;18.50;99.90
39371;DHT22;25099;51.946;4.838;2022-08-19T00:08:32;18.60;99.90
39371;DHT22;25099;51.946;4.838;2022-08-19T00:10:59;18.50;99.90
39371;DHT22;25099;51.946;4.838;2022-08-19T00:13:24;18.50;99.90
39371;DHT22;25099;51.946;4.838;2022-08-19T00:15:50;18.50;99.90
39371;DHT22;25099;51.946;4.838;2022-08-19T00:18:15;18.50;99.90
39371;DHT22;25099;51.946;4.838;2022-08-19T00:20:41;18.50;99.90
39371;DHT22;25099;51.946;4.838;2022-08-19T00:23:07;18.40;99.90
39371;DHT22;25099;51.946;4.838;2022-08-19T00:25:32;18.40;99.90
39371;DHT22;25099;51.946;4.838;2022-08-19T00:27:58;18.40;99.90
39371;DHT22;25099;51.946;4.838;2022-08-19T00:30:25;18.40;99.90
39371;DHT22;25099;51.946;4.838;2022-08-19T00:32:52;18.40;99.90
39371;DHT22;25099;51.946;4.838;2022-08-19T00:35:20;18.40;99.90
39371;DHT22;25099;51.946;4.838;2022-08-19T00:37:47;18.40;99.90
39371;DHT22;25099;51.946;4.838;2022-08-19T00:40:15;18.40;99.90
39371;DHT22;25099;51.946;4.838;2022-08-19T00:42:41;18.40;99.90
39371;DHT22;25099;51.946;4.838;2022-08-19T00:45:17;18.10;99.90
39371;DHT22;25099;51.946;4.838;2022-08-19T00:47:44;18.40;99.90
39371;DHT22;25099;51.946;4.838;2022-08-19T00:50:12;18.30;99.90
39371;DHT22;25099;51.946;4.838;2022-08-19T00:52:42;18.30;99.90
39371;DHT22;25099;51.946;4.838;2022-08-19T00:55:14;18.30;99.90
39371;DHT22;25099;51.946;4.838;2022-08-19T00:57:43;18.30;99.90
39371;DHT22;25099;51.946;4.838;2022-08-19T01:00:14;18.20;99.90
39371;DHT22;25099;51.946;4.838;2022-08-19T01:02:41;18.20;99.90
39371;DHT22;25099;51.946;4.838;2022-08-19T01:05:11;18.20;99.90
39371;DHT22;25099;51.946;4.838;2022-08-19T01:07:39;18.20;99.90
39371;DHT22;25099;51.946;4.838;2022-08-19T01:10:08;18.30;99.90
39371;DHT22;25099;51.946;4.838;2022-08-19T01:12:34;18.20;99.90
39371;DHT22;25099;51.946;4.838;2022-08-19T01:15:00;18.30;99.90
39371;DHT22;25099;51.946;4.838;2022-08-19T01:17:26;18.20;99.90
39371;DHT22;25099;51.946;4.838;2022-08-19T01:19:52;18.30;99.90
39371;DHT22;25099;51.946;4.838;2022-08-19T01:24:50;18.30;99.90
39371;DHT22;25099;51.946;4.838;2022-08-19T01:27:17;18.20;99.90
39371;DHT22;25099;51.946;4.838;2022-08-19T01:29:43;18.30;99.90
39371;DHT22;25099;51.946;4.838;2022-08-19T01:32:12;18.30;99.90
39371;DHT22;25099;51.946;4.838;2022-08-19T01:34:38;18.30;99.90
39371;DHT22;25099;51.946;4.838;2022-08-19T01:37:11;18.20;99.90
39371;DHT22;25099;51.946;4.838;2022-08-19T01:39:38;18.20;99.90
39371;DHT22;25099;51.946;4.838;2022-08-19T01:42:04;18.20;99.90
39371;DHT22;25099;51.946;4.838;2022-08-19T01:44:31;18.20;99.90
39371;DHT22;25099;51.946;4.838;2022-08-19T01:46:57;18.20;99.90
39371;DHT22;25099;51.946;4.838;2022-08-19T01:49:24;18.20;99.90
39371;DHT22;25099;51.946;4.838;2022-08-19T01:51:51;18.60;99.90
39371;DHT22;25099;51.946;4.838;2022-08-19T01:54:18;18.20;99.90
39371;DHT22;25099;51.946;4.838;2022-08-19T01:56:45;18.20;99.90
39371;DHT22;25099;51.946;4.838;2022-08-19T01:59:17;18.20;99.90
39371;DHT22;25099;51.946;4.838;2022-08-19T02:01:44;18.20;99.90
39371;DHT22;25099;51.946;4.838;2022-08-19T02:04:09;18.20;99.90
39371;DHT22;25099;51.946;4.838;2022-08-19T02:06:35;18.20;99.90
39371;DHT22;25099;51.946;4.838;2022-08-19T02:09:03;18.30;99.90
39371;DHT22;25099;51.946;4.838;2022-08-19T02:11:32;18.30;99.90
39371;DHT22;25099;51.946;4.838;2022-08-19T02:14:00;18.20;99.90
39371;DHT22;25099;51.946;4.838;2022-08-19T02:16:27;18.10;99.90
39371;DHT22;25099;51.946;4.838;2022-08-19T02:18:53;18.20;99.90
39371;DHT22;25099;51.946;4.838;2022-08-19T02:21:20;18.20;99.90
39371;DHT22;25099;51.946;4.838;2022-08-19T02:23:46;18.20;99.90
39371;DHT22;25099;51.946;4.838;2022-08-19T02:26:12;18.00;99.90
39371;DHT22;25099;51.946;4.838;2022-08-19T02:28:39;18.10;99.90
39371;DHT22;25099;51.946;4.838;2022-08-19T02:31:10;18.10;99.90
39371;DHT22;25099;51.946;4.838;2022-08-19T02:33:36;18.10;99.90
39371;DHT22;25099;51.946;4.838;2022-08-19T02:36:04;18.00;99.90
39371;DHT22;25099;51.946;4.838;2022-08-19T02:38:29;18.00;99.90
39371;DHT22;25099;51.946;4.838;2022-08-19T02:41:00;18.00;99.90
39371;DHT22;25099;51.946;4.838;2022-08-19T02:43:27;18.00;99.90
39371;DHT22;25099;51.946;4.838;2022-08-19T02:45:53;17.90;99.90
39371;DHT22;25099;51.946;4.838;2022-08-19T02:48:20;17.90;99.90
39371;DHT22;25099;51.946;4.838;2022-08-19T02:50:47;17.90;99.90
39371;DHT22;25099;51.946;4.838;2022-08-19T02:53:13;17.90;99.90
39371;DHT22;25099;51.946;4.838;2022-08-19T02:55:46;17.90;99.90
39371;DHT22;25099;51.946;4.838;2022-08-19T02:58:13;17.80;99.90
39371;DHT22;25099;51.946;4.838;2022-08-19T03:00:51;17.90;99.90
39371;DHT22;25099;51.946;4.838;2022-08-19T03:03:18;17.80;99.90
39371;DHT22;25099;51.946;4.838;2022-08-19T03:05:44;17.90;99.90
39371;DHT22;25099;51.946;4.838;2022-08-19T03:08:14;18.00;99.90
39371;DHT22;25099;51.946;4.838;2022-08-19T03:10:42;17.90;99.90
39371;DHT22;25099;51.946;4.838;2022-08-19T03:13:10;18.00;99.90
39371;DHT22;25099;51.946;4.838;2022-08-19T03:15:39;18.10;99.90
39371;DHT22;25099;51.946;4.838;2022-08-19T03:18:05;18.20;99.90
39371;DHT22;25099;51.946;4.838;2022-08-19T03:20:30;18.00;99.90
39371;DHT22;25099;51.946;4.838;2022-08-19T03:22:56;18.00;99.90
39371;DHT22;25099;51.946;4.838;2022-08-19T03:25:22;18.00;99.90
39371;DHT22;25099;51.946;4.838;2022-08-19T03:27:49;18.00;99.90
39371;DHT22;25099;51.946;4.838;2022-08-19T03:30:15;18.00;99.90
39371;DHT22;25099;51.946;4.838;2022-08-19T03:32:40;18.00;99.90
39371;DHT22;25099;51.946;4.838;2022-08-19T03:35:06;18.00;99.90
39371;DHT22;25099;51.946;4.838;2022-08-19T03:37:32;18.00;99.90
39371;DHT22;25099;51.946;4.838;2022-08-19T03:39:58;17.90;99.90
39371;DHT22;25099;51.946;4.838;2022-08-19T03:42:23;17.90;99.90
39371;DHT22;25099;51.946;4.838;2022-08-19T03:44:52;17.90;99.90
39371;DHT22;25099;51.946;4.838;2022-08-19T03:47:17;17.90;99.90
39371;DHT22;25099;51.946;4.838;2022-08-19T03:49:44;17.80;99.90
39371;DHT22;25099;51.946;4.838;2022-08-19T03:52:10;17.80;99.90
39371;DHT22;25099;51.946;4.838;2022-08-19T03:54:36;17.80;99.90
39371;DHT22;25099;51.946;4.838;2022-08-19T03:57:03;17.80;99.90
39371;DHT22;25099;51.946;4.838;2022-08-19T03:59:32;17.70;99.90
39371;DHT22;25099;51.946;4.838;2022-08-19T04:02:00;17.70;99.90
39371;DHT22;25099;51.946;4.838;2022-08-19T04:04:26;17.60;99.90
39371;DHT22;25099;51.946;4.838;2022-08-19T04:06:52;17.60;99.90
39371;DHT22;25099;51.946;4.838;2022-08-19T04:09:19;17.60;99.90
39371;DHT22;25099;51.946;4.838;2022-08-19T04:11:48;17.50;99.90
39371;DHT22;25099;51.946;4.838;2022-08-19T04:14:17;17.50;99.90
39371;DHT22;25099;51.946;4.838;2022-08-19T04:16:44;17.50;99.90
39371;DHT22;25099;51.946;4.838;2022-08-19T04:19:10;17.30;99.90
39371;DHT22;25099;51.946;4.838;2022-08-19T04:21:35;17.40;99.90
39371;DHT22;25099;51.946;4.838;2022-08-19T04:24:01;17.40;99.90
39371;DHT22;25099;51.946;4.838;2022-08-19T04:26:30;17.40;99.90
39371;DHT22;25099;51.946;4.838;2022-08-19T04:29:10;17.40;99.90
39371;DHT22;25099;51.946;4.838;2022-08-19T04:31:36;17.30;99.90
39371;DHT22;25099;51.946;4.838;2022-08-19T04:34:04;17.40;99.90
39371;DHT22;25099;51.946;4.838;2022-08-19T04:36:33;17.30;99.90
39371;DHT22;25099;51.946;4.838;2022-08-19T04:39:03;17.40;99.90
39371;DHT22;25099;51.946;4.838;2022-08-19T04:41:28;17.50;99.90
39371;DHT22;25099;51.946;4.838;2022-08-19T04:44:13;17.60;99.90
39371;DHT22;25099;51.946;4.838;2022-08-19T04:46:39;17.70;99.90
39371;DHT22;25099;51.946;4.838;2022-08-19T04:49:06;17.70;99.90
39371;DHT22;25099;51.946;4.838;2022-08-19T04:51:33;17.80;99.90
39371;DHT22;25099;51.946;4.838;2022-08-19T04:54:00;17.70;99.90
39371;DHT22;25099;51.946;4.838;2022-08-19T04:56:27;17.70;99.90
39371;DHT22;25099;51.946;4.838;2022-08-19T04:58:54;17.80;99.90
39371;DHT22;25099;51.946;4.838;2022-08-19T05:01:25;17.80;99.90
39371;DHT22;25099;51.946;4.838;2022-08-19T05:03:52;17.90;99.90
39371;DHT22;25099;51.946;4.838;2022-08-19T05:06:19;17.90;99.90
39371;DHT22;25099;51.946;4.838;2022-08-19T05:08:47;17.90;99.90
39371;DHT22;25099;51.946;4.838;2022-08-19T05:11:14;17.90;99.90
39371;DHT22;25099;51.946;4.838;2022-08-19T05:13:41;18.00;99.90
39371;DHT22;25099;51.946;4.838;2022-08-19T05:16:08;18.10;99.90
39371;DHT22;25099;51.946;4.838;2022-08-19T05:18:34;18.10;99.90
39371;DHT22;25099;51.946;4.838;2022-08-19T05:21:20;18.20;99.90
39371;DHT22;25099;51.946;4.838;2022-08-19T05:24:05;18.20;99.90
39371;DHT22;25099;51.946;4.838;2022-08-19T05:26:38;18.30;99.90
39371;DHT22;25099;51.946;4.838;2022-08-19T05:29:05;18.40;99.90
39371;DHT22;25099;51.946;4.838;2022-08-19T05:31:31;18.30;99.90
39371;DHT22;25099;51.946;4.838;2022-08-19T05:33:57;18.50;99.90
39371;DHT22;25099;51.946;4.838;2022-08-19T05:36:25;18.60;99.90
39371;DHT22;25099;51.946;4.838;2022-08-19T05:38:51;18.60;99.90
39371;DHT22;25099;51.946;4.838;2022-08-19T05:41:19;18.70;99.90
39371;DHT22;25099;51.946;4.838;2022-08-19T05:43:45;18.70;99.90
39371;DHT22;25099;51.946;4.838;2022-08-19T05:46:17;18.80;99.90
39371;DHT22;25099;51.946;4.838;2022-08-19T05:48:43;18.80;99.90
39371;DHT22;25099;51.946;4.838;2022-08-19T05:51:09;18.80;99.90
39371;DHT22;25099;51.946;4.838;2022-08-19T05:53:35;18.90;99.90
39371;DHT22;25099;51.946;4.838;2022-08-19T05:56:09;18.90;99.90
39371;DHT22;25099;51.946;4.838;2022-08-19T05:58:36;19.00;99.90
39371;DHT22;25099;51.946;4.838;2022-08-19T06:01:03;18.90;99.90
39371;DHT22;25099;51.946;4.838;2022-08-19T06:03:35;18.90;99.90
39371;DHT22;25099;51.946;4.838;2022-08-19T06:06:02;19.00;99.90
39371;DHT22;25099;51.946;4.838;2022-08-19T06:08:28;19.00;99.90
39371;DHT22;25099;51.946;4.838;2022-08-19T06:10:54;19.00;99.90
39371;DHT22;25099;51.946;4.838;2022-08-19T06:13:19;19.00;99.90
39371;DHT22;25099;51.946;4.838;2022-08-19T06:15:46;19.10;99.90
39371;DHT22;25099;51.946;4.838;2022-08-19T06:18:13;19.00;99.90
39371;DHT22;25099;51.946;4.838;2022-08-19T06:20:39;19.10;99.90
39371;DHT22;25099;51.946;4.838;2022-08-19T06:23:05;19.10;99.90
39371;DHT22;25099;51.946;4.838;2022-08-19T06:25:30;19.10;99.90
39371;DHT22;25099;51.946;4.838;2022-08-19T06:27:56;19.10;99.90
39371;DHT22;25099;51.946;4.838;2022-08-19T06:30:22;19.30;99.90
39371;DHT22;25099;51.946;4.838;2022-08-19T06:32:48;19.40;99.90
39371;DHT22;25099;51.946;4.838;2022-08-19T06:35:14;19.40;99.90
39371;DHT22;25099;51.946;4.838;2022-08-19T06:37:40;19.30;99.90
39371;DHT22;25099;51.946;4.838;2022-08-19T06:40:06;19.40;99.90
39371;DHT22;25099;51.946;4.838;2022-08-19T06:42:34;19.50;99.90
39371;DHT22;25099;51.946;4.838;2022-08-19T06:45:01;19.60;99.90
39371;DHT22;25099;51.946;4.838;2022-08-19T06:47:30;19.70;99.90
39371;DHT22;25099;51.946;4.838;2022-08-19T06:49:58;19.80;99.90
39371;DHT22;25099;51.946;4.838;2022-08-19T06:52:32;19.90;99.90
39371;DHT22;25099;51.946;4.838;2022-08-19T06:54:58;19.90;99.90
39371;DHT22;25099;51.946;4.838;2022-08-19T06:57:25;20.00;99.90
39371;DHT22;25099;51.946;4.838;2022-08-19T06:59:52;20.10;99.90
39371;DHT22;25099;51.946;4.838;2022-08-19T07:02:17;20.20;99.90
39371;DHT22;25099;51.946;4.838;2022-08-19T07:04:43;20.30;99.90
39371;DHT22;25099;51.946;4.838;2022-08-19T07:07:12;20.30;99.90
39371;DHT22;25099;51.946;4.838;2022-08-19T07:09:41;20.30;99.90
39371;DHT22;25099;51.946;4.838;2022-08-19T07:12:09;20.40;99.90
39371;DHT22;25099;51.946;4.838;2022-08-19T07:14:37;20.50;99.90
39371;DHT22;25099;51.946;4.838;2022-08-19T07:17:05;20.60;99.90
39371;DHT22;25099;51.946;4.838;2022-08-19T07:19:32;20.60;99.90
39371;DHT22;25099;51.946;4.838;2022-08-19T07:21:58;20.70;99.90
39371;DHT22;25099;51.946;4.838;2022-08-19T07:24:26;20.70;99.90
39371;DHT22;25099;51.946;4.838;2022-08-19T07:26:54;20.70;99.90
39371;DHT22;25099;51.946;4.838;2022-08-19T07:29:21;20.60;99.90
39371;DHT22;25099;51.946;4.838;2022-08-19T07:31:49;20.60;99.90
39371;DHT22;25099;51.946;4.838;2022-08-19T07:34:16;20.50;99.90
39371;DHT22;25099;51.946;4.838;2022-08-19T07:36:43;20.40;99.90
39371;DHT22;25099;51.946;4.838;2022-08-19T07:39:20;20.30;99.90
39371;DHT22;25099;51.946;4.838;2022-08-19T07:41:47;20.40;99.90
39371;DHT22;25099;51.946;4.838;2022-08-19T07:44:14;20.40;99.90
39371;DHT22;25099;51.946;4.838;2022-08-19T07:46:43;20.40;99.90
39371;DHT22;25099;51.946;4.838;2022-08-19T07:49:10;20.40;99.90
39371;DHT22;25099;51.946;4.838;2022-08-19T07:51:52;20.50;99.90
39371;DHT22;25099;51.946;4.838;2022-08-19T07:54:20;20.60;99.90
39371;DHT22;25099;51.946;4.838;2022-08-19T07:56:46;20.80;99.90
39371;DHT22;25099;51.946;4.838;2022-08-19T07:59:12;20.90;99.90
39371;DHT22;25099;51.946;4.838;2022-08-19T08:01:38;21.10;99.90
39371;DHT22;25099;51.946;4.838;2022-08-19T08:04:06;21.20;99.90
39371;DHT22;25099;51.946;4.838;2022-08-19T08:06:52;21.30;99.90
39371;DHT22;25099;51.946;4.838;2022-08-19T08:09:39;21.40;99.90
39371;DHT22;25099;51.946;4.838;2022-08-19T08:12:09;21.50;99.90
39371;DHT22;25099;51.946;4.838;2022-08-19T08:17:08;21.70;99.90
39371;DHT22;25099;51.946;4.838;2022-08-19T08:19:33;21.70;99.90
39371;DHT22;25099;51.946;4.838;2022-08-19T08:22:01;21.70;99.90
39371;DHT22;25099;51.946;4.838;2022-08-19T08:24:29;21.80;99.90
39371;DHT22;25099;51.946;4.838;2022-08-19T08:26:57;21.90;99.90
39371;DHT22;25099;51.946;4.838;2022-08-19T08:29:25;22.00;99.90
39371;DHT22;25099;51.946;4.838;2022-08-19T08:31:51;22.10;99.90
39371;DHT22;25099;51.946;4.838;2022-08-19T08:34:16;22.10;99.90
39371;DHT22;25099;51.946;4.838;2022-08-19T08:36:44;22.10;99.90
39371;DHT22;25099;51.946;4.838;2022-08-19T08:39:16;22.20;99.90
39371;DHT22;25099;51.946;4.838;2022-08-19T08:44:53;22.40;99.90
39371;DHT22;25099;51.946;4.838;2022-08-19T08:47:23;22.50;99.90
39371;DHT22;25099;51.946;4.838;2022-08-19T08:49:59;22.60;99.90
39371;DHT22;25099;51.946;4.838;2022-08-19T08:52:29;22.70;99.90
39371;DHT22;25099;51.946;4.838;2022-08-19T08:54:58;22.80;99.90
39371;DHT22;25099;51.946;4.838;2022-08-19T09:02:52;23.20;99.90
39371;DHT22;25099;51.946;4.838;2022-08-19T09:05:18;23.40;99.90
39371;DHT22;25099;51.946;4.838;2022-08-19T09:07:50;23.50;99.90
39371;DHT22;25099;51.946;4.838;2022-08-19T09:10:36;23.50;99.90
39371;DHT22;25099;51.946;4.838;2022-08-19T09:15:47;23.70;99.90
39371;DHT22;25099;51.946;4.838;2022-08-19T09:18:15;23.70;99.90
39371;DHT22;25099;51.946;4.838;2022-08-19T09:20:41;23.70;99.90
39371;DHT22;25099;51.946;4.838;2022-08-19T09:23:08;23.70;99.90
39371;DHT22;25099;51.946;4.838;2022-08-19T09:25:34;23.60;99.90
39371;DHT22;25099;51.946;4.838;2022-08-19T09:28:00;23.70;99.90
39371;DHT22;25099;51.946;4.838;2022-08-19T09:30:40;23.70;99.90
39371;DHT22;25099;51.946;4.838;2022-08-19T09:33:07;23.60;99.90
39371;DHT22;25099;51.946;4.838;2022-08-19T09:35:33;23.60;99.90
39371;DHT22;25099;51.946;4.838;2022-08-19T09:37:59;23.50;99.90
39371;DHT22;25099;51.946;4.838;2022-08-19T09:40:29;23.50;99.90
39371;DHT22;25099;51.946;4.838;2022-08-19T09:42:55;23.40;99.90
39371;DHT22;25099;51.946;4.838;2022-08-19T09:45:22;23.40;99.90
39371;DHT22;25099;51.946;4.838;2022-08-19T09:47:52;23.50;99.90
39371;DHT22;25099;51.946;4.838;2022-08-19T09:50:19;23.50;99.90
39371;DHT22;25099;51.946;4.838;2022-08-19T09:52:45;23.50;99.90
39371;DHT22;25099;51.946;4.838;2022-08-19T09:55:12;23.60;99.90
39371;DHT22;25099;51.946;4.838;2022-08-19T09:57:38;23.80;99.90
39371;DHT22;25099;51.946;4.838;2022-08-19T10:00:07;23.90;99.90
39371;DHT22;25099;51.946;4.838;2022-08-19T10:02:33;24.10;99.90
39371;DHT22;25099;51.946;4.838;2022-08-19T10:04:59;24.30;99.90
39371;DHT22;25099;51.946;4.838;2022-08-19T10:07:44;24.50;99.90
39371;DHT22;25099;51.946;4.838;2022-08-19T10:10:10;24.70;99.90
39371;DHT22;25099;51.946;4.838;2022-08-19T10:12:36;24.90;99.90
39371;DHT22;25099;51.946;4.838;2022-08-19T10:15:04;25.00;99.90
39371;DHT22;25099;51.946;4.838;2022-08-19T10:17:29;25.10;99.90
39371;DHT22;25099;51.946;4.838;2022-08-19T10:19:55;25.30;99.90
39371;DHT22;25099;51.946;4.838;2022-08-19T10:22:20;25.20;99.90
39371;DHT22;25099;51.946;4.838;2022-08-19T10:24:46;25.10;99.90
39371;DHT22;25099;51.946;4.838;2022-08-19T10:27:12;25.10;99.90
39371;DHT22;25099;51.946;4.838;2022-08-19T10:29:39;25.00;99.90
39371;DHT22;25099;51.946;4.838;2022-08-19T10:32:08;25.00;99.90
39371;DHT22;25099;51.946;4.838;2022-08-19T10:34:38;25.00;99.90
39371;DHT22;25099;51.946;4.838;2022-08-19T10:37:04;24.90;99.90
39371;DHT22;25099;51.946;4.838;2022-08-19T10:39:35;24.90;99.90
39371;DHT22;25099;51.946;4.838;2022-08-19T10:42:05;24.90;99.90
39371;DHT22;25099;51.946;4.838;2022-08-19T10:44:31;24.80;99.90
39371;DHT22;25099;51.946;4.838;2022-08-19T10:46:57;24.90;99.90
39371;DHT22;25099;51.946;4.838;2022-08-19T10:49:24;25.00;99.90
39371;DHT22;25099;51.946;4.838;2022-08-19T10:51:49;25.10;99.90
39371;DHT22;25099;51.946;4.838;2022-08-19T10:54:34;25.00;99.90
39371;DHT22;25099;51.946;4.838;2022-08-19T10:57:18;25.00;99.90
39371;DHT22;25099;51.946;4.838;2022-08-19T10:59:44;25.00;99.90
39371;DHT22;25099;51.946;4.838;2022-08-19T11:02:10;25.00;99.90
39371;DHT22;25099;51.946;4.838;2022-08-19T11:04:38;25.00;99.90
39371;DHT22;25099;51.946;4.838;2022-08-19T11:07:04;25.00;99.90
39371;DHT22;25099;51.946;4.838;2022-08-19T11:09:30;25.10;99.90
39371;DHT22;25099;51.946;4.838;2022-08-19T11:11:57;25.20;99.90
39371;DHT22;25099;51.946;4.838;2022-08-19T11:14:23;25.30;99.90
39371;DHT22;25099;51.946;4.838;2022-08-19T11:16:52;25.40;99.90
39371;DHT22;25099;51.946;4.838;2022-08-19T11:19:21;25.50;99.90
39371;DHT22;25099;51.946;4.838;2022-08-19T11:21:49;25.60;99.90
39371;DHT22;25099;51.946;4.838;2022-08-19T11:24:19;25.50;99.90
39371;DHT22;25099;51.946;4.838;2022-08-19T11:26:47;25.60;99.90
39371;DHT22;25099;51.946;4.838;2022-08-19T11:29:19;25.60;99.90
39371;DHT22;25099;51.946;4.838;2022-08-19T11:31:47;25.80;99.90
39371;DHT22;25099;51.946;4.838;2022-08-19T11:34:17;25.90;99.90
39371;DHT22;25099;51.946;4.838;2022-08-19T11:36:45;26.00;99.90
39371;DHT22;25099;51.946;4.838;2022-08-19T11:39:13;26.00;99.90
39371;DHT22;25099;51.946;4.838;2022-08-19T11:41:39;26.10;99.90
39371;DHT22;25099;51.946;4.838;2022-08-19T11:44:05;26.00;99.90
39371;DHT22;25099;51.946;4.838;2022-08-19T11:46:32;26.00;99.90
39371;DHT22;25099;51.946;4.838;2022-08-19T11:48:58;25.90;99.90
39371;DHT22;25099;51.946;4.838;2022-08-19T11:51:26;25.70;99.90
39371;DHT22;25099;51.946;4.838;2022-08-19T11:53:54;25.50;99.90
39371;DHT22;25099;51.946;4.838;2022-08-19T11:56:20;25.40;99.90
39371;DHT22;25099;51.946;4.838;2022-08-19T11:58:46;25.40;99.90
39371;DHT22;25099;51.946;4.838;2022-08-19T12:01:14;25.30;99.90
39371;DHT22;25099;51.946;4.838;2022-08-19T12:03:42;25.30;99.90
39371;DHT22;25099;51.946;4.838;2022-08-19T12:06:10;25.20;99.90
39371;DHT22;25099;51.946;4.838;2022-08-19T12:08:37;25.10;99.90
39371;DHT22;25099;51.946;4.838;2022-08-19T12:11:04;25.00;99.90
39371;DHT22;25099;51.946;4.838;2022-08-19T12:13:33;24.90;99.90
39371;DHT22;25099;51.946;4.838;2022-08-19T12:15:59;24.80;99.90
39371;DHT22;25099;51.946;4.838;2022-08-19T12:18:25;24.80;99.90
39371;DHT22;25099;51.946;4.838;2022-08-19T12:20:53;24.80;99.90
39371;DHT22;25099;51.946;4.838;2022-08-19T12:23:20;24.90;99.90
39371;DHT22;25099;51.946;4.838;2022-08-19T12:25:48;24.80;99.90
39371;DHT22;25099;51.946;4.838;2022-08-19T12:28:22;24.80;99.90
39371;DHT22;25099;51.946;4.838;2022-08-19T12:30:48;24.70;99.90
39371;DHT22;25099;51.946;4.838;2022-08-19T12:33:16;24.60;99.90
39371;DHT22;25099;51.946;4.838;2022-08-19T12:35:44;24.50;99.90
39371;DHT22;25099;51.946;4.838;2022-08-19T12:38:11;24.40;99.90
39371;DHT22;25099;51.946;4.838;2022-08-19T12:40:37;24.10;99.90
39371;DHT22;25099;51.946;4.838;2022-08-19T12:43:04;23.80;99.90
39371;DHT22;25099;51.946;4.838;2022-08-19T12:45:29;23.50;99.90
39371;DHT22;25099;51.946;4.838;2022-08-19T12:47:56;23.30;99.90
39371;DHT22;25099;51.946;4.838;2022-08-19T12:50:21;23.00;99.90
39371;DHT22;25099;51.946;4.838;2022-08-19T12:52:47;22.70;99.90
39371;DHT22;25099;51.946;4.838;2022-08-19T12:55:13;22.50;99.90
39371;DHT22;25099;51.946;4.838;2022-08-19T12:57:39;22.40;99.90
39371;DHT22;25099;51.946;4.838;2022-08-19T13:00:08;22.20;99.90
39371;DHT22;25099;51.946;4.838;2022-08-19T13:02:39;22.10;99.90
39371;DHT22;25099;51.946;4.838;2022-08-19T13:05:08;21.80;99.90
39371;DHT22;25099;51.946;4.838;2022-08-19T13:07:34;21.70;99.90
39371;DHT22;25099;51.946;4.838;2022-08-19T13:10:00;21.70;99.90
39371;DHT22;25099;51.946;4.838;2022-08-19T13:12:26;21.60;99.90
39371;DHT22;25099;51.946;4.838;2022-08-19T13:14:53;21.50;99.90
39371;DHT22;25099;51.946;4.838;2022-08-19T13:17:19;21.40;99.90
39371;DHT22;25099;51.946;4.838;2022-08-19T13:19:45;21.50;99.90
39371;DHT22;25099;51.946;4.838;2022-08-19T13:22:11;21.50;99.90
39371;DHT22;25099;51.946;4.838;2022-08-19T13:24:37;21.50;99.90
39371;DHT22;25099;51.946;4.838;2022-08-19T13:27:03;21.50;99.90
39371;DHT22;25099;51.946;4.838;2022-08-19T13:29:29;21.50;99.90
39371;DHT22;25099;51.946;4.838;2022-08-19T13:32:13;21.70;99.90
39371;DHT22;25099;51.946;4.838;2022-08-19T13:34:57;21.70;99.90
39371;DHT22;25099;51.946;4.838;2022-08-19T13:37:24;21.90;99.90
39371;DHT22;25099;51.946;4.838;2022-08-19T13:40:10;22.20;99.90
39371;DHT22;25099;51.946;4.838;2022-08-19T13:42:42;22.50;99.90
39371;DHT22;25099;51.946;4.838;2022-08-19T13:45:08;22.80;99.90
39371;DHT22;25099;51.946;4.838;2022-08-19T13:47:34;23.10;99.90
39371;DHT22;25099;51.946;4.838;2022-08-19T13:50:03;23.30;99.90
39371;DHT22;25099;51.946;4.838;2022-08-19T13:52:28;23.50;99.90
39371;DHT22;25099;51.946;4.838;2022-08-19T13:54:54;23.80;99.90
39371;DHT22;25099;51.946;4.838;2022-08-19T13:57:20;23.90;99.90
39371;DHT22;25099;51.946;4.838;2022-08-19T13:59:46;24.10;99.90
39371;DHT22;25099;51.946;4.838;2022-08-19T14:02:12;24.10;99.90
39371;DHT22;25099;51.946;4.838;2022-08-19T14:04:37;24.20;99.90
39371;DHT22;25099;51.946;4.838;2022-08-19T14:07:03;24.20;99.90
39371;DHT22;25099;51.946;4.838;2022-08-19T14:09:29;24.20;99.90
39371;DHT22;25099;51.946;4.838;2022-08-19T14:11:55;24.30;99.90
39371;DHT22;25099;51.946;4.838;2022-08-19T14:14:21;24.40;99.90
39371;DHT22;25099;51.946;4.838;2022-08-19T14:16:47;24.50;99.90
39371;DHT22;25099;51.946;4.838;2022-08-19T14:19:13;24.80;99.90
39371;DHT22;25099;51.946;4.838;2022-08-19T14:21:38;25.00;99.90
39371;DHT22;25099;51.946;4.838;2022-08-19T14:24:06;25.00;99.90
39371;DHT22;25099;51.946;4.838;2022-08-19T14:26:32;25.00;99.90
39371;DHT22;25099;51.946;4.838;2022-08-19T14:28:58;24.80;99.90
39371;DHT22;25099;51.946;4.838;2022-08-19T14:31:24;24.70;99.90
39371;DHT22;25099;51.946;4.838;2022-08-19T14:33:50;24.50;99.90
39371;DHT22;25099;51.946;4.838;2022-08-19T14:36:17;24.30;99.90
39371;DHT22;25099;51.946;4.838;2022-08-19T14:38:43;24.10;99.90
39371;DHT22;25099;51.946;4.838;2022-08-19T14:41:18;23.90;99.90
39371;DHT22;25099;51.946;4.838;2022-08-19T14:43:46;23.70;99.90
39371;DHT22;25099;51.946;4.838;2022-08-19T14:46:13;23.60;99.90
39371;DHT22;25099;51.946;4.838;2022-08-19T14:48:40;23.50;99.90
39371;DHT22;25099;51.946;4.838;2022-08-19T14:51:06;23.50;99.90
39371;DHT22;25099;51.946;4.838;2022-08-19T14:53:32;23.40;99.90
39371;DHT22;25099;51.946;4.838;2022-08-19T14:56:01;23.50;99.90
39371;DHT22;25099;51.946;4.838;2022-08-19T14:58:31;23.60;99.90
39371;DHT22;25099;51.946;4.838;2022-08-19T15:00:58;23.80;99.90
39371;DHT22;25099;51.946;4.838;2022-08-19T15:03:24;24.00;99.90
39371;DHT22;25099;51.946;4.838;2022-08-19T15:05:51;24.30;99.90
39371;DHT22;25099;51.946;4.838;2022-08-19T15:08:17;24.80;99.90
39371;DHT22;25099;51.946;4.838;2022-08-19T15:10:42;25.10;99.90
39371;DHT22;25099;51.946;4.838;2022-08-19T15:13:08;25.50;99.90
39371;DHT22;25099;51.946;4.838;2022-08-19T15:15:35;25.70;99.90
39371;DHT22;25099;51.946;4.838;2022-08-19T15:18:00;26.10;99.90
39371;DHT22;25099;51.946;4.838;2022-08-19T15:20:28;26.50;99.90
39371;DHT22;25099;51.946;4.838;2022-08-19T15:22:54;26.80;99.90
39371;DHT22;25099;51.946;4.838;2022-08-19T15:25:20;26.80;99.90
39371;DHT22;25099;51.946;4.838;2022-08-19T15:27:47;26.80;99.90
39371;DHT22;25099;51.946;4.838;2022-08-19T15:30:20;26.80;99.90
39371;DHT22;25099;51.946;4.838;2022-08-19T15:32:47;26.70;99.90
39371;DHT22;25099;51.946;4.838;2022-08-19T15:35:12;26.40;99.90
39371;DHT22;25099;51.946;4.838;2022-08-19T15:37:38;26.10;99.90
39371;DHT22;25099;51.946;4.838;2022-08-19T15:40:05;25.90;99.90
39371;DHT22;25099;51.946;4.838;2022-08-19T15:42:32;25.70;99.90
39371;DHT22;25099;51.946;4.838;2022-08-19T15:44:57;25.40;99.90
39371;DHT22;25099;51.946;4.838;2022-08-19T15:47:23;25.20;99.90
39371;DHT22;25099;51.946;4.838;2022-08-19T15:49:49;25.00;99.90